createdAt,value
2023-02-13T00:00:04.829Z,18.42
2023-02-13T00:00:14.792Z,18.42
2023-02-13T00:00:24.824Z,18.41
2023-02-13T00:00:34.811Z,18.39
2023-02-13T00:00:55.121Z,18.42
2023-02-13T00:01:04.772Z,18.42
2023-02-13T00:01:14.811Z,18.44
2023-02-13T00:01:24.768Z,18.46
2023-02-13T00:01:34.782Z,18.42
2023-02-13T00:01:44.779Z,18.44
2023-02-13T00:01:54.800Z,18.46
2023-02-13T00:02:04.815Z,18.44
2023-02-13T00:02:14.799Z,18.42
2023-02-13T00:02:24.854Z,18.47
2023-02-13T00:02:34.870Z,18.42
2023-02-13T00:02:44.821Z,18.42
2023-02-13T00:02:54.774Z,18.44
2023-02-13T00:03:04.757Z,18.42
2023-02-13T00:03:14.870Z,18.44
2023-02-13T00:03:24.871Z,18.46
2023-02-13T00:03:34.820Z,18.44
2023-02-13T00:03:44.852Z,18.44
2023-02-13T00:03:54.858Z,18.42
2023-02-13T00:04:04.754Z,18.42
2023-02-13T00:04:14.779Z,18.42
2023-02-13T00:04:24.746Z,18.46
2023-02-13T00:04:34.777Z,18.44
2023-02-13T00:04:44.747Z,18.46
2023-02-13T00:04:54.778Z,18.49
2023-02-13T00:05:04.747Z,18.46
2023-02-13T00:05:14.779Z,18.44
2023-02-13T00:05:24.741Z,18.44
2023-02-13T00:05:34.757Z,18.44
2023-02-13T00:05:54.751Z,18.46
2023-02-13T00:06:04.736Z,18.46
2023-02-13T00:06:14.772Z,18.46
2023-02-13T00:06:24.734Z,18.46
2023-02-13T00:06:34.773Z,18.44
2023-02-13T00:06:44.731Z,18.42
2023-02-13T00:06:54.744Z,18.42
2023-02-13T00:07:04.732Z,18.39
2023-02-13T00:07:14.742Z,18.44
2023-02-13T00:07:24.728Z,18.46
2023-02-13T00:07:34.755Z,18.46
2023-02-13T00:07:44.725Z,18.42
2023-02-13T00:07:54.762Z,18.44
2023-02-13T00:08:14.756Z,18.44
2023-02-13T00:08:24.722Z,18.44
2023-02-13T00:08:34.732Z,18.42
2023-02-13T00:08:44.715Z,18.44
2023-02-13T00:08:54.754Z,18.44
2023-02-13T00:09:06.470Z,18.47
2023-02-13T00:09:14.755Z,18.42
2023-02-13T00:09:24.710Z,18.46
2023-02-13T00:09:34.740Z,18.42
2023-02-13T00:09:44.708Z,18.42
2023-02-13T00:09:54.734Z,18.47
2023-02-13T00:10:04.711Z,18.44
2023-02-13T00:10:14.726Z,18.46
2023-02-13T00:10:24.719Z,18.44
2023-02-13T00:10:43.707Z,18.44
2023-02-13T00:10:55.083Z,18.49
2023-02-13T00:11:04.702Z,18.46
2023-02-13T00:11:14.731Z,18.44
2023-02-13T00:11:24.697Z,18.46
2023-02-13T00:11:34.712Z,18.46
2023-02-13T00:11:44.722Z,18.44
2023-02-13T00:11:54.707Z,18.44
2023-02-13T00:12:04.693Z,18.44
2023-02-13T00:12:14.720Z,18.44
2023-02-13T00:12:24.697Z,18.42
2023-02-13T00:12:34.706Z,18.44
2023-02-13T00:12:44.689Z,18.46
2023-02-13T00:12:54.705Z,18.46
2023-02-13T00:13:14.757Z,18.46
2023-02-13T00:13:24.682Z,18.41
2023-02-13T00:13:34.700Z,18.41
2023-02-13T00:13:44.681Z,18.46
2023-02-13T00:13:54.727Z,18.46
2023-02-13T00:14:04.689Z,18.44
2023-02-13T00:14:14.701Z,18.46
2023-02-13T00:14:24.679Z,18.41
2023-02-13T00:14:34.711Z,18.41
2023-02-13T00:14:44.672Z,18.41
2023-02-13T00:14:54.690Z,18.42
2023-02-13T00:15:04.677Z,18.42
2023-02-13T00:15:14.708Z,18.39
2023-02-13T00:15:34.725Z,18.39
2023-02-13T00:15:44.782Z,18.44
2023-02-13T00:15:54.899Z,18.44
2023-02-13T00:16:04.690Z,18.42
2023-02-13T00:16:14.847Z,18.44
2023-02-13T00:16:24.732Z,18.42
2023-02-13T00:16:34.698Z,18.39
2023-02-13T00:16:44.656Z,18.46
2023-02-13T00:16:54.692Z,18.44
2023-02-13T00:17:04.655Z,18.46
2023-02-13T00:17:14.713Z,18.42
2023-02-13T00:17:24.657Z,18.42
2023-02-13T00:17:34.685Z,18.42
2023-02-13T00:17:44.653Z,18.47
2023-02-13T00:18:04.647Z,18.44
2023-02-13T00:18:14.682Z,18.46
2023-02-13T00:18:24.655Z,18.46
2023-02-13T00:18:34.680Z,18.46
2023-02-13T00:18:44.640Z,18.42
2023-02-13T00:18:54.680Z,18.46
2023-02-13T00:19:04.645Z,18.46
2023-02-13T00:19:14.659Z,18.44
2023-02-13T00:19:24.642Z,18.42
2023-02-13T00:19:34.654Z,18.46
2023-02-13T00:19:44.642Z,18.47
2023-02-13T00:19:54.667Z,18.49
2023-02-13T00:20:04.636Z,18.46
2023-02-13T00:20:14.670Z,18.46
2023-02-13T00:20:34.647Z,18.44
2023-02-13T00:20:44.629Z,18.42
2023-02-13T00:20:54.982Z,18.44
2023-02-13T00:21:04.629Z,18.41
2023-02-13T00:21:14.660Z,18.44
2023-02-13T00:21:24.622Z,18.44
2023-02-13T00:21:34.685Z,18.42
2023-02-13T00:21:44.628Z,18.44
2023-02-13T00:21:54.636Z,18.41
2023-02-13T00:22:04.627Z,18.42
2023-02-13T00:22:14.650Z,18.44
2023-02-13T00:22:24.628Z,18.41
2023-02-13T00:22:34.634Z,18.44
2023-02-13T00:22:54.638Z,18.42
2023-02-13T00:23:04.615Z,18.41
2023-02-13T00:23:14.646Z,18.42
2023-02-13T00:23:24.654Z,18.42
2023-02-13T00:23:34.641Z,18.44
2023-02-13T00:23:44.616Z,18.44
2023-02-13T00:23:54.621Z,18.42
2023-02-13T00:24:04.616Z,18.49
2023-02-13T00:24:14.638Z,18.47
2023-02-13T00:24:24.607Z,18.44
2023-02-13T00:24:34.637Z,18.46
2023-02-13T00:24:44.602Z,18.44
2023-02-13T00:24:54.645Z,18.41
2023-02-13T00:25:04.603Z,18.42
2023-02-13T00:25:24.597Z,18.46
2023-02-13T00:25:34.622Z,18.42
2023-02-13T00:25:44.599Z,18.44
2023-02-13T00:25:54.644Z,18.44
2023-02-13T00:26:04.596Z,18.46
2023-02-13T00:26:14.606Z,18.44
2023-02-13T00:26:24.606Z,18.42
2023-02-13T00:26:34.623Z,18.44
2023-02-13T00:26:44.599Z,18.47
2023-02-13T00:26:54.631Z,18.44
2023-02-13T00:27:04.584Z,18.44
2023-02-13T00:27:14.627Z,18.46
2023-02-13T00:27:24.597Z,18.44
2023-02-13T00:27:34.609Z,18.41
2023-02-13T00:27:54.595Z,18.42
2023-02-13T00:28:04.625Z,18.42
2023-02-13T00:28:14.619Z,18.44
2023-02-13T00:28:24.665Z,18.44
2023-02-13T00:28:34.631Z,18.47
2023-02-13T00:28:44.591Z,18.46
2023-02-13T00:28:54.585Z,18.47
2023-02-13T00:29:04.604Z,18.47
2023-02-13T00:29:14.576Z,18.44
2023-02-13T00:29:24.600Z,18.46
2023-02-13T00:29:34.568Z,18.42
2023-02-13T00:29:44.599Z,18.42
2023-02-13T00:29:54.572Z,18.47
2023-02-13T00:30:14.561Z,18.44
2023-02-13T00:30:24.601Z,18.47
2023-02-13T00:30:34.562Z,18.47
2023-02-13T00:30:44.623Z,18.47
2023-02-13T00:30:54.715Z,18.46
2023-02-13T00:31:04.755Z,18.46
2023-02-13T00:31:14.699Z,18.47
2023-02-13T00:31:24.732Z,18.46
2023-02-13T00:31:34.763Z,18.49
2023-02-13T00:31:44.775Z,18.46
2023-02-13T00:31:54.686Z,18.46
2023-02-13T00:32:04.756Z,18.47
2023-02-13T00:32:14.688Z,18.46
2023-02-13T00:32:24.560Z,18.44
2023-02-13T00:32:44.575Z,18.42
2023-02-13T00:32:54.543Z,18.42
2023-02-13T00:33:04.555Z,18.44
2023-02-13T00:33:14.542Z,18.47
2023-02-13T00:33:24.583Z,18.44
2023-02-13T00:33:34.549Z,18.44
2023-02-13T00:33:44.564Z,18.44
2023-02-13T00:33:54.531Z,18.46
2023-02-13T00:34:04.561Z,18.42
2023-02-13T00:34:14.527Z,18.46
2023-02-13T00:34:24.542Z,18.42
2023-02-13T00:34:34.529Z,18.46
2023-02-13T00:34:44.570Z,18.46
2023-02-13T00:34:54.523Z,18.44
2023-02-13T00:35:14.524Z,18.44
2023-02-13T00:35:24.541Z,18.41
2023-02-13T00:35:34.520Z,18.44
2023-02-13T00:35:44.554Z,18.42
2023-02-13T00:35:54.521Z,18.44
2023-02-13T00:36:04.536Z,18.44
2023-02-13T00:36:14.533Z,18.47
2023-02-13T00:36:24.530Z,18.46
2023-02-13T00:36:34.518Z,18.44
2023-02-13T00:36:44.551Z,18.44
2023-02-13T00:36:54.511Z,18.44
2023-02-13T00:37:04.552Z,18.44
2023-02-13T00:37:14.506Z,18.42
2023-02-13T00:37:24.526Z,18.44
2023-02-13T00:37:44.539Z,18.44
2023-02-13T00:37:54.506Z,18.44
2023-02-13T00:38:04.524Z,18.47
2023-02-13T00:38:14.507Z,18.47
2023-02-13T00:38:24.529Z,18.47
2023-02-13T00:38:34.500Z,18.44
2023-02-13T00:38:44.522Z,18.49
2023-02-13T00:38:54.500Z,18.46
2023-02-13T00:39:04.516Z,18.46
2023-02-13T00:39:14.496Z,18.42
2023-02-13T00:39:24.523Z,18.46
2023-02-13T00:39:34.496Z,18.42
2023-02-13T00:39:44.520Z,18.41
2023-02-13T00:40:04.513Z,18.42
2023-02-13T00:40:14.487Z,18.44
2023-02-13T00:40:24.526Z,18.46
2023-02-13T00:40:34.501Z,18.47
2023-02-13T00:40:44.514Z,18.46
2023-02-13T00:40:54.513Z,18.46
2023-02-13T00:41:04.510Z,18.42
2023-02-13T00:41:14.505Z,18.44
2023-02-13T00:41:24.511Z,18.41
2023-02-13T00:41:34.483Z,18.47
2023-02-13T00:41:44.505Z,18.46
2023-02-13T00:41:54.472Z,18.41
2023-02-13T00:42:04.510Z,18.42
2023-02-13T00:42:14.478Z,18.46
2023-02-13T00:42:34.466Z,18.46
2023-02-13T00:42:44.485Z,18.44
2023-02-13T00:42:54.463Z,18.46
2023-02-13T00:43:04.481Z,18.49
2023-02-13T00:43:17.534Z,18.46
2023-02-13T00:43:24.481Z,18.47
2023-02-13T00:43:34.468Z,18.46
2023-02-13T00:43:44.477Z,18.46
2023-02-13T00:43:54.471Z,18.44
2023-02-13T00:44:04.493Z,18.44
2023-02-13T00:44:14.457Z,18.44
2023-02-13T00:44:24.481Z,18.42
2023-02-13T00:44:34.455Z,18.42
2023-02-13T00:44:44.488Z,18.42
2023-02-13T00:45:04.467Z,18.39
2023-02-13T00:45:14.447Z,18.46
2023-02-13T00:45:24.482Z,18.46
2023-02-13T00:45:34.449Z,18.44
2023-02-13T00:45:44.477Z,18.41
2023-02-13T00:45:54.442Z,18.44
2023-02-13T00:46:04.508Z,18.44
2023-02-13T00:46:14.551Z,18.42
2023-02-13T00:46:24.572Z,18.42
2023-02-13T00:46:34.487Z,18.42
2023-02-13T00:46:44.540Z,18.44
2023-02-13T00:46:54.442Z,18.42
2023-02-13T00:47:04.452Z,18.44
2023-02-13T00:47:14.433Z,18.46
2023-02-13T00:47:24.468Z,18.44
2023-02-13T00:47:34.432Z,18.42
2023-02-13T00:47:44.468Z,18.42
2023-02-13T00:47:54.430Z,18.44
2023-02-13T00:48:04.447Z,18.42
2023-02-13T00:48:14.429Z,18.44
2023-02-13T00:48:24.458Z,18.46
2023-02-13T00:48:34.441Z,18.42
2023-02-13T00:48:44.458Z,18.41
2023-02-13T00:48:54.424Z,18.42
2023-02-13T00:49:04.443Z,18.42
2023-02-13T00:49:14.425Z,18.39
2023-02-13T00:49:24.434Z,18.42
2023-02-13T00:49:34.441Z,18.46
2023-02-13T00:49:44.453Z,18.42
2023-02-13T00:50:04.449Z,18.41
2023-02-13T00:50:14.412Z,18.46
2023-02-13T00:50:24.425Z,18.44
2023-02-13T00:50:34.411Z,18.39
2023-02-13T00:50:44.445Z,18.47
2023-02-13T00:50:54.409Z,18.44
2023-02-13T00:51:04.425Z,18.46
2023-02-13T00:51:14.406Z,18.44
2023-02-13T00:51:24.449Z,18.44
2023-02-13T00:51:34.411Z,18.41
2023-02-13T00:51:44.440Z,18.46
2023-02-13T00:51:54.400Z,18.41
2023-02-13T00:52:04.422Z,18.42
2023-02-13T00:52:24.431Z,18.42
2023-02-13T00:52:34.400Z,18.44
2023-02-13T00:52:44.416Z,18.41
2023-02-13T00:52:54.401Z,18.42
2023-02-13T00:53:04.426Z,18.41
2023-02-13T00:53:14.403Z,18.41
2023-02-13T00:53:24.441Z,18.47
2023-02-13T00:53:34.401Z,18.41
2023-02-13T00:53:44.410Z,18.44
2023-02-13T00:53:54.391Z,18.41
2023-02-13T00:54:04.419Z,18.42
2023-02-13T00:54:14.389Z,18.44
2023-02-13T00:54:24.417Z,18.41
2023-02-13T00:54:34.383Z,18.41
2023-02-13T00:54:54.386Z,18.42
2023-02-13T00:55:04.414Z,18.41
2023-02-13T00:55:14.384Z,18.41
2023-02-13T00:55:24.398Z,18.44
2023-02-13T00:55:34.374Z,18.41
2023-02-13T00:55:44.390Z,18.44
2023-02-13T00:55:54.380Z,18.42
2023-02-13T00:56:04.388Z,18.44
2023-02-13T00:56:14.379Z,18.44
2023-02-13T00:56:24.383Z,18.42
2023-02-13T00:56:34.371Z,18.44
2023-02-13T00:56:44.395Z,18.39
2023-02-13T00:56:54.406Z,18.41
2023-02-13T00:57:04.406Z,18.42
2023-02-13T00:57:24.384Z,18.42
2023-02-13T00:57:34.358Z,18.39
2023-02-13T00:57:44.378Z,18.44
2023-02-13T00:57:54.357Z,18.42
2023-02-13T00:58:04.413Z,18.42
2023-02-13T00:58:14.411Z,18.44
2023-02-13T00:58:24.435Z,18.42
2023-02-13T00:58:34.525Z,18.41
2023-02-13T00:58:44.376Z,18.42
2023-02-13T00:58:54.353Z,18.42
2023-02-13T00:59:04.364Z,18.42
2023-02-13T00:59:14.346Z,18.44
2023-02-13T00:59:24.383Z,18.39
2023-02-13T00:59:44.378Z,18.41
2023-02-13T00:59:54.354Z,18.42
2023-02-13T01:00:04.370Z,18.42
2023-02-13T01:00:14.351Z,18.41
2023-02-13T01:00:24.379Z,18.44
2023-02-13T01:00:34.341Z,18.41
2023-02-13T01:00:44.354Z,18.41
2023-02-13T01:00:54.411Z,18.39
2023-02-13T01:01:04.367Z,18.46
2023-02-13T01:01:14.370Z,18.42
2023-02-13T01:01:24.403Z,18.42
2023-02-13T01:01:34.369Z,18.42
2023-02-13T01:01:44.377Z,18.41
2023-02-13T01:01:54.442Z,18.42
2023-02-13T01:02:14.348Z,18.44
2023-02-13T01:02:24.351Z,18.42
2023-02-13T01:02:34.329Z,18.44
2023-02-13T01:02:44.347Z,18.41
2023-02-13T01:02:54.327Z,18.44
2023-02-13T01:03:04.340Z,18.39
2023-02-13T01:03:14.394Z,18.42
2023-02-13T01:03:24.470Z,18.42
2023-02-13T01:03:34.449Z,18.42
2023-02-13T01:03:44.422Z,18.44
2023-02-13T01:03:54.405Z,18.41
2023-02-13T01:04:04.469Z,18.42
2023-02-13T01:04:14.317Z,18.39
2023-02-13T01:04:24.334Z,18.42
2023-02-13T01:04:44.342Z,18.41
2023-02-13T01:04:54.327Z,18.42
2023-02-13T01:05:04.341Z,18.46
2023-02-13T01:05:14.312Z,18.42
2023-02-13T01:05:24.338Z,18.42
2023-02-13T01:05:34.314Z,18.41
2023-02-13T01:05:44.347Z,18.39
2023-02-13T01:05:54.312Z,18.39
2023-02-13T01:06:04.336Z,18.44
2023-02-13T01:06:14.306Z,18.44
2023-02-13T01:06:24.349Z,18.44
2023-02-13T01:06:34.303Z,18.41
2023-02-13T01:06:44.314Z,18.41
2023-02-13T01:07:04.330Z,18.42
2023-02-13T01:07:15.757Z,18.42
2023-02-13T01:07:24.309Z,18.41
2023-02-13T01:07:34.296Z,18.41
2023-02-13T01:07:44.323Z,18.42
2023-02-13T01:07:54.322Z,18.44
2023-02-13T01:08:04.322Z,18.42
2023-02-13T01:08:14.287Z,18.42
2023-02-13T01:08:24.335Z,18.42
2023-02-13T01:08:34.293Z,18.44
2023-02-13T01:08:44.305Z,18.41
2023-02-13T01:08:54.280Z,18.42
2023-02-13T01:09:04.317Z,18.41
2023-02-13T01:09:14.282Z,18.42
2023-02-13T01:09:34.278Z,18.46
2023-02-13T01:09:44.312Z,18.44
2023-02-13T01:09:54.284Z,18.42
2023-02-13T01:10:04.295Z,18.41
2023-02-13T01:10:14.277Z,18.42
2023-02-13T01:10:24.298Z,18.42
2023-02-13T01:10:34.293Z,18.41
2023-02-13T01:10:44.274Z,18.42
2023-02-13T01:10:54.393Z,18.39
2023-02-13T01:11:04.273Z,18.46
2023-02-13T01:11:14.292Z,18.44
2023-02-13T01:11:24.276Z,18.39
2023-02-13T01:11:34.297Z,18.41
2023-02-13T01:11:44.263Z,18.42
2023-02-13T01:12:04.267Z,18.39
2023-02-13T01:12:14.278Z,18.39
2023-02-13T01:12:24.263Z,18.41
2023-02-13T01:12:34.299Z,18.41
2023-02-13T01:12:44.254Z,18.42
2023-02-13T01:12:54.273Z,18.41
2023-02-13T01:13:04.257Z,18.41
2023-02-13T01:13:14.282Z,18.42
2023-02-13T01:13:24.257Z,18.41
2023-02-13T01:13:34.301Z,18.41
2023-02-13T01:13:44.259Z,18.38
2023-02-13T01:13:54.297Z,18.42
2023-02-13T01:14:04.251Z,18.44
2023-02-13T01:14:24.248Z,18.44
2023-02-13T01:14:34.272Z,18.39
2023-02-13T01:14:44.244Z,18.44
2023-02-13T01:14:54.277Z,18.41
2023-02-13T01:15:04.242Z,18.39
2023-02-13T01:15:14.287Z,18.41
2023-02-13T01:15:24.248Z,18.42
2023-02-13T01:15:34.257Z,18.44
2023-02-13T01:15:44.253Z,18.41
2023-02-13T01:15:54.351Z,18.44
2023-02-13T01:16:04.269Z,18.42
2023-02-13T01:16:14.298Z,18.41
2023-02-13T01:16:24.428Z,18.44
2023-02-13T01:16:34.260Z,18.41
2023-02-13T01:16:54.261Z,18.41
2023-02-13T01:17:04.229Z,18.42
2023-02-13T01:17:14.260Z,18.44
2023-02-13T01:17:24.274Z,18.42
2023-02-13T01:17:34.254Z,18.44
2023-02-13T01:17:44.218Z,18.41
2023-02-13T01:17:54.240Z,18.41
2023-02-13T01:18:04.230Z,18.42
2023-02-13T01:18:14.232Z,18.46
2023-02-13T01:18:24.265Z,18.42
2023-02-13T01:18:34.272Z,18.42
2023-02-13T01:18:44.231Z,18.42
2023-02-13T01:18:54.248Z,18.41
2023-02-13T01:19:04.209Z,18.41
2023-02-13T01:19:24.215Z,18.42
2023-02-13T01:19:34.223Z,18.42
2023-02-13T01:19:44.212Z,18.44
2023-02-13T01:19:54.245Z,18.44
2023-02-13T01:20:04.204Z,18.44
2023-02-13T01:20:14.224Z,18.41
2023-02-13T01:20:24.248Z,18.41
2023-02-13T01:20:34.233Z,18.41
2023-02-13T01:20:44.199Z,18.42
2023-02-13T01:20:54.369Z,18.41
2023-02-13T01:21:04.202Z,18.41
2023-02-13T01:21:14.231Z,18.42
2023-02-13T01:21:38.804Z,18.41
2023-02-13T01:21:43.503Z,18.41
2023-02-13T01:21:53.470Z,18.41
2023-02-13T01:22:03.556Z,18.44
2023-02-13T01:22:13.471Z,18.42
2023-02-13T01:22:23.502Z,18.42
2023-02-13T01:22:33.476Z,18.41
2023-02-13T01:22:43.497Z,18.44
2023-02-13T01:22:53.487Z,18.44
2023-02-13T01:23:03.499Z,18.44
2023-02-13T01:23:13.466Z,18.44
2023-02-13T01:23:23.508Z,18.42
2023-02-13T01:23:33.499Z,18.42
2023-02-13T01:23:43.479Z,18.44
2023-02-13T01:23:53.465Z,18.42
2023-02-13T01:24:03.500Z,18.41
2023-02-13T01:24:13.461Z,18.39
2023-02-13T01:24:23.491Z,18.44
2023-02-13T01:24:33.454Z,18.42
2023-02-13T01:24:43.488Z,18.42
2023-02-13T01:24:53.447Z,18.41
2023-02-13T01:25:03.490Z,18.41
2023-02-13T01:25:13.446Z,18.44
2023-02-13T01:25:23.461Z,18.42
2023-02-13T01:25:33.446Z,18.44
2023-02-13T01:25:43.466Z,18.42
2023-02-13T01:25:53.445Z,18.42
2023-02-13T01:26:03.482Z,18.42
2023-02-13T01:26:13.438Z,18.39
2023-02-13T01:26:23.464Z,18.41
2023-02-13T01:26:33.457Z,18.41
2023-02-13T01:26:43.468Z,18.42
2023-02-13T01:26:53.441Z,18.41
2023-02-13T01:27:03.484Z,18.41
2023-02-13T01:27:13.434Z,18.39
2023-02-13T01:27:23.447Z,18.42
2023-02-13T01:27:33.431Z,18.41
2023-02-13T01:27:43.447Z,18.41
2023-02-13T01:27:53.440Z,18.39
2023-02-13T01:28:03.507Z,18.41
2023-02-13T01:28:13.447Z,18.38
2023-02-13T01:28:23.550Z,18.44
2023-02-13T01:28:33.492Z,18.41
2023-02-13T01:28:43.463Z,18.42
2023-02-13T01:28:53.443Z,18.44
2023-02-13T01:29:03.456Z,18.44
2023-02-13T01:29:13.428Z,18.42
2023-02-13T01:29:23.435Z,18.42
2023-02-13T01:29:33.421Z,18.42
2023-02-13T01:29:43.452Z,18.39
2023-02-13T01:29:53.418Z,18.38
2023-02-13T01:30:03.473Z,18.39
2023-02-13T01:30:13.417Z,18.44
2023-02-13T01:30:23.431Z,18.44
2023-02-13T01:30:33.412Z,18.42
2023-02-13T01:30:43.519Z,18.42
2023-02-13T01:30:53.452Z,18.42
2023-02-13T01:31:03.761Z,18.39
2023-02-13T01:31:13.539Z,18.42
2023-02-13T01:31:23.530Z,18.41
2023-02-13T01:31:33.551Z,18.42
2023-02-13T01:31:43.522Z,18.42
2023-02-13T01:31:53.546Z,18.41
2023-02-13T01:32:03.463Z,18.41
2023-02-13T01:32:13.466Z,18.39
2023-02-13T01:32:23.417Z,18.39
2023-02-13T01:32:33.399Z,18.41
2023-02-13T01:32:43.428Z,18.39
2023-02-13T01:32:53.407Z,18.41
2023-02-13T01:33:03.415Z,18.39
2023-02-13T01:33:13.408Z,18.41
2023-02-13T01:33:23.408Z,18.41
2023-02-13T01:33:33.386Z,18.41
2023-02-13T01:33:43.421Z,18.38
2023-02-13T01:33:53.399Z,18.42
2023-02-13T01:34:03.420Z,18.41
2023-02-13T01:34:13.387Z,18.41
2023-02-13T01:34:23.405Z,18.42
2023-02-13T01:34:33.385Z,18.42
2023-02-13T01:34:43.396Z,18.42
2023-02-13T01:34:53.387Z,18.42
2023-02-13T01:35:03.411Z,18.41
2023-02-13T01:35:13.385Z,18.41
2023-02-13T01:35:23.424Z,18.42
2023-02-13T01:35:33.376Z,18.46
2023-02-13T01:35:43.391Z,18.46
2023-02-13T01:35:53.373Z,18.42
2023-02-13T01:36:03.407Z,18.44
2023-02-13T01:36:13.380Z,18.42
2023-02-13T01:36:23.383Z,18.39
2023-02-13T01:36:33.373Z,18.42
2023-02-13T01:36:43.384Z,18.41
2023-02-13T01:36:53.364Z,18.39
2023-02-13T01:37:03.400Z,18.39
2023-02-13T01:37:13.372Z,18.41
2023-02-13T01:37:23.377Z,18.42
2023-02-13T01:37:33.357Z,18.41
2023-02-13T01:37:43.392Z,18.41
2023-02-13T01:37:53.354Z,18.44
2023-02-13T01:38:03.405Z,18.44
2023-02-13T01:38:13.353Z,18.39
2023-02-13T01:38:23.394Z,18.41
2023-02-13T01:38:33.351Z,18.41
2023-02-13T01:38:43.385Z,18.41
2023-02-13T01:38:53.367Z,18.44
2023-02-13T01:39:03.378Z,18.44
2023-02-13T01:39:13.351Z,18.41
2023-02-13T01:39:23.378Z,18.41
2023-02-13T01:39:33.341Z,18.41
2023-02-13T01:39:43.377Z,18.41
2023-02-13T01:39:53.341Z,18.38
2023-02-13T01:40:03.373Z,18.41
2023-02-13T01:40:13.370Z,18.42
2023-02-13T01:40:23.358Z,18.41
2023-02-13T01:40:33.349Z,18.36
2023-02-13T01:40:43.371Z,18.41
2023-02-13T01:40:53.335Z,18.38
2023-02-13T01:41:03.372Z,18.41
2023-02-13T01:41:13.332Z,18.42
2023-02-13T01:41:23.346Z,18.41
2023-02-13T01:41:33.331Z,18.39
2023-02-13T01:41:43.357Z,18.41
2023-02-13T01:41:53.334Z,18.39
2023-02-13T01:42:03.342Z,18.41
2023-02-13T01:42:13.332Z,18.41
2023-02-13T01:42:23.341Z,18.41
2023-02-13T01:42:33.321Z,18.39
2023-02-13T01:42:43.338Z,18.39
2023-02-13T01:42:53.315Z,18.42
2023-02-13T01:43:03.350Z,18.42
2023-02-13T01:43:13.315Z,18.41
2023-02-13T01:43:23.415Z,18.41
2023-02-13T01:43:33.315Z,18.42
2023-02-13T01:43:43.351Z,18.41
2023-02-13T01:43:53.314Z,18.41
2023-02-13T01:44:13.315Z,18.39
2023-02-13T01:44:23.321Z,18.38
2023-02-13T01:44:33.306Z,18.38
2023-02-13T01:44:43.353Z,18.38
2023-02-13T01:44:53.305Z,18.38
2023-02-13T01:45:03.325Z,18.42
2023-02-13T01:45:13.301Z,18.39
2023-02-13T01:45:23.322Z,18.39
2023-02-13T01:45:33.304Z,18.39
2023-02-13T01:45:43.332Z,18.39
2023-02-13T01:45:53.302Z,18.42
2023-02-13T01:46:03.328Z,18.42
2023-02-13T01:46:13.360Z,18.39
2023-02-13T01:46:23.370Z,18.42
2023-02-13T01:46:33.359Z,18.41
2023-02-13T01:46:43.418Z,18.39
2023-02-13T01:46:53.351Z,18.39
2023-02-13T01:47:03.321Z,18.41
2023-02-13T01:47:13.285Z,18.42
2023-02-13T01:47:23.301Z,18.38
2023-02-13T01:47:33.286Z,18.39
2023-02-13T01:47:45.153Z,18.39
2023-02-13T01:47:53.300Z,18.41
2023-02-13T01:48:05.241Z,18.39
2023-02-13T01:48:13.279Z,18.39
2023-02-13T01:48:23.312Z,18.39
2023-02-13T01:48:33.276Z,18.42
2023-02-13T01:48:43.317Z,18.39
2023-02-13T01:48:53.285Z,18.41
2023-02-13T01:49:03.351Z,18.39
2023-02-13T01:49:13.287Z,18.39
2023-02-13T01:49:23.289Z,18.41
2023-02-13T01:49:33.288Z,18.39
2023-02-13T01:49:43.289Z,18.39
2023-02-13T01:49:53.266Z,18.36
2023-02-13T01:50:03.304Z,18.41
2023-02-13T01:50:13.267Z,18.41
2023-02-13T01:50:23.297Z,18.36
2023-02-13T01:50:33.262Z,18.41
2023-02-13T01:50:43.296Z,18.39
2023-02-13T01:50:53.260Z,18.41
2023-02-13T01:51:03.300Z,18.39
2023-02-13T01:51:13.262Z,18.39
2023-02-13T01:51:23.315Z,18.39
2023-02-13T01:51:33.258Z,18.39
2023-02-13T01:51:43.287Z,18.39
2023-02-13T01:51:53.258Z,18.41
2023-02-13T01:52:03.275Z,18.42
2023-02-13T01:52:13.252Z,18.39
2023-02-13T01:52:23.269Z,18.38
2023-02-13T01:52:33.248Z,18.41
2023-02-13T01:52:43.271Z,18.38
2023-02-13T01:52:53.247Z,18.38
2023-02-13T01:53:03.262Z,18.41
2023-02-13T01:53:13.243Z,18.38
2023-02-13T01:53:23.241Z,18.38
2023-02-13T01:53:33.276Z,18.39
2023-02-13T01:53:43.238Z,18.38
2023-02-13T01:53:53.253Z,18.38
2023-02-13T01:54:03.247Z,18.35
2023-02-13T01:54:13.277Z,18.41
2023-02-13T01:54:23.239Z,18.39
2023-02-13T01:54:33.252Z,18.38
2023-02-13T01:54:43.231Z,18.41
2023-02-13T01:54:53.247Z,18.39
2023-02-13T01:55:03.239Z,18.36
2023-02-13T01:55:13.246Z,18.38
2023-02-13T01:55:23.228Z,18.42
2023-02-13T01:55:33.268Z,18.39
2023-02-13T01:55:43.225Z,18.41
2023-02-13T01:55:53.268Z,18.39
2023-02-13T01:56:03.223Z,18.39
2023-02-13T01:56:13.253Z,18.42
2023-02-13T01:56:23.234Z,18.39
2023-02-13T01:56:33.241Z,18.36
2023-02-13T01:56:43.218Z,18.41
2023-02-13T01:56:53.266Z,18.39
2023-02-13T01:57:03.217Z,18.38
2023-02-13T01:57:13.258Z,18.38
2023-02-13T01:57:23.211Z,18.41
2023-02-13T01:57:33.243Z,18.39
2023-02-13T01:57:43.233Z,18.41
2023-02-13T01:57:53.225Z,18.39
2023-02-13T01:58:03.208Z,18.44
2023-02-13T01:58:13.241Z,18.39
2023-02-13T01:58:23.205Z,18.38
2023-02-13T01:58:33.224Z,18.38
2023-02-13T01:58:43.207Z,18.39
2023-02-13T01:58:53.237Z,18.38
2023-02-13T01:59:03.202Z,18.38
2023-02-13T01:59:13.220Z,18.39
2023-02-13T01:59:23.199Z,18.39
2023-02-13T01:59:33.239Z,18.41
2023-02-13T01:59:43.197Z,18.39
2023-02-13T01:59:53.213Z,18.38
2023-02-13T02:00:03.201Z,18.36
2023-02-13T02:00:13.212Z,18.39
2023-02-13T02:00:23.192Z,18.41
2023-02-13T02:00:33.224Z,18.35
2023-02-13T02:00:43.188Z,18.38
2023-02-13T02:00:53.204Z,18.38
2023-02-13T02:01:03.214Z,18.38
2023-02-13T02:01:13.223Z,18.39
2023-02-13T02:01:23.206Z,18.36
2023-02-13T02:01:33.255Z,18.38
2023-02-13T02:01:43.321Z,18.39
2023-02-13T02:01:53.388Z,18.39
2023-02-13T02:02:03.346Z,18.39
2023-02-13T02:02:13.282Z,18.42
2023-02-13T02:02:23.294Z,18.39
2023-02-13T02:02:33.249Z,18.36
2023-02-13T02:02:43.219Z,18.38
2023-02-13T02:02:53.214Z,18.39
2023-02-13T02:03:03.170Z,18.38
2023-02-13T02:03:13.206Z,18.41
2023-02-13T02:03:23.173Z,18.36
2023-02-13T02:03:33.208Z,18.39
2023-02-13T02:03:43.184Z,18.38
2023-02-13T02:03:53.200Z,18.38
2023-02-13T02:04:03.169Z,18.41
2023-02-13T02:04:13.183Z,18.38
2023-02-13T02:04:23.163Z,18.39
2023-02-13T02:04:33.178Z,18.38
2023-02-13T02:04:43.162Z,18.39
2023-02-13T02:05:03.181Z,18.38
2023-02-13T02:05:14.232Z,18.38
2023-02-13T02:05:23.156Z,18.35
2023-02-13T02:05:33.174Z,18.38
2023-02-13T02:05:43.153Z,18.36
2023-02-13T02:05:53.187Z,18.36
2023-02-13T02:06:03.159Z,18.38
2023-02-13T02:06:13.182Z,18.36
2023-02-13T02:06:23.154Z,18.39
2023-02-13T02:06:33.193Z,18.39
2023-02-13T02:06:43.154Z,18.39
2023-02-13T02:06:53.181Z,18.35
2023-02-13T02:07:03.396Z,18.36
2023-02-13T02:07:13.177Z,18.38
2023-02-13T02:07:23.159Z,18.38
2023-02-13T02:07:33.160Z,18.38
2023-02-13T02:07:43.138Z,18.36
2023-02-13T02:07:53.155Z,18.38
2023-02-13T02:08:03.142Z,18.35
2023-02-13T02:08:13.167Z,18.38
2023-02-13T02:08:23.136Z,18.36
2023-02-13T02:08:33.167Z,18.39
2023-02-13T02:08:43.131Z,18.38
2023-02-13T02:08:53.160Z,18.39
2023-02-13T02:09:03.125Z,18.36
2023-02-13T02:09:13.147Z,18.36
2023-02-13T02:09:23.129Z,18.38
2023-02-13T02:09:33.159Z,18.39
2023-02-13T02:09:43.131Z,18.35
2023-02-13T02:09:53.138Z,18.36
2023-02-13T02:10:03.136Z,18.36
2023-02-13T02:10:13.188Z,18.36
2023-02-13T02:10:23.117Z,18.38
2023-02-13T02:10:33.172Z,18.36
2023-02-13T02:10:43.117Z,18.39
2023-02-13T02:10:53.148Z,18.41
2023-02-13T02:11:03.126Z,18.38
2023-02-13T02:11:13.133Z,18.38
2023-02-13T02:11:23.118Z,18.39
2023-02-13T02:11:33.142Z,18.38
2023-02-13T02:11:43.132Z,18.38
2023-02-13T02:11:53.133Z,18.38
2023-02-13T02:12:03.119Z,18.38
2023-02-13T02:12:13.143Z,18.38
2023-02-13T02:12:23.103Z,18.36
2023-02-13T02:12:33.120Z,18.38
2023-02-13T02:12:43.116Z,18.38
2023-02-13T02:12:53.141Z,18.38
2023-02-13T02:13:03.108Z,18.36
2023-02-13T02:13:13.144Z,18.35
2023-02-13T02:13:23.109Z,18.35
2023-02-13T02:13:33.119Z,18.36
2023-02-13T02:13:43.108Z,18.39
2023-02-13T02:13:53.136Z,18.36
2023-02-13T02:14:03.099Z,18.41
2023-02-13T02:14:13.128Z,18.38
2023-02-13T02:14:23.106Z,18.38